createdAt,value
2022-11-20T00:01:34.921Z,10.00
2022-11-20T00:04:03.185Z,10.10
2022-11-20T00:06:31.266Z,10.30
2022-11-20T00:09:01.380Z,9.20
2022-11-20T00:11:31.183Z,9.60
2022-11-20T00:14:02.029Z,10.20
2022-11-20T00:16:32.559Z,9.10
2022-11-20T00:19:00.725Z,9.90
2022-11-20T00:21:30.237Z,9.60
2022-11-20T00:23:59.452Z,9.30
2022-11-20T00:28:59.068Z,8.90
2022-11-20T00:31:28.638Z,9.00
2022-11-20T00:33:57.715Z,9.30
2022-11-20T00:36:27.679Z,9.10
2022-11-20T00:38:58.924Z,9.30
2022-11-20T00:41:28.702Z,9.10
2022-11-20T00:43:57.944Z,9.20
2022-11-20T00:48:55.721Z,8.70
2022-11-20T00:51:26.868Z,9.80
2022-11-20T00:54:01.139Z,9.80
2022-11-20T00:56:29.866Z,8.40
2022-11-20T00:59:04.748Z,8.00
2022-11-20T01:01:32.771Z,7.30
2022-11-20T01:04:01.559Z,7.80
2022-11-20T01:06:32.523Z,8.60
2022-11-20T01:09:03.233Z,7.90
2022-11-20T01:11:34.111Z,9.00
2022-11-20T01:14:05.677Z,8.40
2022-11-20T01:16:39.939Z,8.40
2022-11-20T01:19:17.518Z,8.70
2022-11-20T01:21:48.577Z,9.30
2022-11-20T01:24:19.522Z,8.90
2022-11-20T01:26:50.555Z,9.20
2022-11-20T01:29:24.655Z,7.90
2022-11-20T01:31:53.720Z,8.70
2022-11-20T01:34:23.888Z,8.60
2022-11-20T01:36:53.782Z,11.30
2022-11-20T01:39:25.267Z,9.50
2022-11-20T01:42:14.008Z,10.20
2022-11-20T01:44:51.096Z,11.40
2022-11-20T01:47:31.188Z,11.30
2022-11-20T01:50:30.032Z,11.00
2022-11-20T01:53:03.221Z,11.20
2022-11-20T01:55:35.806Z,11.50
2022-11-20T01:58:05.015Z,10.80
2022-11-20T02:00:33.190Z,11.40
2022-11-20T02:03:06.279Z,11.20
2022-11-20T02:05:46.368Z,11.10
2022-11-20T02:08:14.905Z,10.90
2022-11-20T02:10:43.084Z,11.10
2022-11-20T02:13:30.093Z,11.60
2022-11-20T02:15:58.375Z,11.70
2022-11-20T02:18:27.267Z,10.40
2022-11-20T02:21:03.226Z,10.40
2022-11-20T02:23:54.228Z,9.50
2022-11-20T02:26:24.539Z,10.10
2022-11-20T02:28:52.876Z,9.80
2022-11-20T02:31:21.157Z,8.80
2022-11-20T02:33:49.036Z,9.40
2022-11-20T02:36:17.463Z,9.10
2022-11-20T02:38:45.429Z,9.50
2022-11-20T02:41:13.322Z,8.90
2022-11-20T02:43:41.370Z,8.90
2022-11-20T02:46:09.652Z,9.80
2022-11-20T02:48:37.819Z,8.90
2022-11-20T02:51:05.991Z,9.10
2022-11-20T02:53:34.073Z,8.60
2022-11-20T02:56:02.036Z,8.90
2022-11-20T02:58:29.893Z,8.80
2022-11-20T03:00:57.862Z,8.40
2022-11-20T03:03:25.880Z,7.60
2022-11-20T03:05:54.015Z,7.90
2022-11-20T03:08:21.947Z,8.20
2022-11-20T03:10:49.921Z,8.80
2022-11-20T03:13:17.925Z,8.70
2022-11-20T03:15:46.136Z,9.20
2022-11-20T03:18:14.998Z,9.90
2022-11-20T03:20:42.959Z,9.20
2022-11-20T03:23:10.954Z,9.10
2022-11-20T03:25:38.837Z,9.10
2022-11-20T03:28:06.860Z,8.90
2022-11-20T03:30:35.958Z,9.40
2022-11-20T03:35:31.944Z,9.30
2022-11-20T03:37:59.865Z,8.90
2022-11-20T03:40:28.155Z,10.00
2022-11-20T03:42:56.221Z,9.20
2022-11-20T03:45:24.499Z,8.40
2022-11-20T03:47:52.778Z,9.20
2022-11-20T03:50:20.841Z,9.40
2022-11-20T03:52:48.913Z,8.50
2022-11-20T03:55:17.042Z,9.80
2022-11-20T03:57:44.888Z,10.10
2022-11-20T04:00:13.843Z,7.90
2022-11-20T04:02:41.710Z,9.10
2022-11-20T04:05:09.892Z,9.00
2022-11-20T04:07:37.917Z,8.70
2022-11-20T04:10:06.498Z,8.10
2022-11-20T04:12:34.957Z,8.90
2022-11-20T04:15:03.000Z,9.00
2022-11-20T04:17:30.830Z,7.40
2022-11-20T04:19:58.791Z,8.20
2022-11-20T04:22:27.106Z,8.10
2022-11-20T04:24:55.287Z,7.50
2022-11-20T04:27:23.359Z,8.80
2022-11-20T04:29:51.197Z,8.40
2022-11-20T04:32:19.196Z,6.60
2022-11-20T04:34:47.370Z,6.10
2022-11-20T04:37:15.331Z,7.30
2022-11-20T04:39:43.505Z,7.60
2022-11-20T04:42:29.703Z,6.60
2022-11-20T04:44:58.441Z,5.00
2022-11-20T04:47:26.522Z,6.40
2022-11-20T04:49:55.424Z,6.10
2022-11-20T04:52:23.358Z,5.20
2022-11-20T04:54:53.984Z,5.20
2022-11-20T04:57:22.243Z,6.00
2022-11-20T04:59:50.363Z,5.10
2022-11-20T05:02:18.659Z,4.80
2022-11-20T05:04:46.774Z,4.60
2022-11-20T05:07:15.115Z,4.90
2022-11-20T05:09:43.416Z,4.80
2022-11-20T05:12:11.586Z,4.80
2022-11-20T05:14:39.731Z,4.70
2022-11-20T05:17:11.520Z,4.50
2022-11-20T05:19:39.597Z,4.30
2022-11-20T05:22:07.556Z,3.70
2022-11-20T05:24:35.834Z,3.80
2022-11-20T05:27:03.960Z,3.00
2022-11-20T05:29:31.984Z,3.10
2022-11-20T05:31:59.949Z,2.60
2022-11-20T05:34:28.022Z,3.50
2022-11-20T05:36:55.990Z,2.80
2022-11-20T05:39:24.133Z,2.90
2022-11-20T05:42:12.044Z,3.10
2022-11-20T05:44:40.418Z,3.20
2022-11-20T05:47:08.456Z,3.20
2022-11-20T05:49:36.691Z,3.20
2022-11-20T05:52:05.010Z,3.10
2022-11-20T05:54:33.597Z,3.00
2022-11-20T05:57:01.871Z,3.00
2022-11-20T05:59:30.011Z,2.50
2022-11-20T06:01:58.028Z,2.70
2022-11-20T06:04:26.213Z,3.10
2022-11-20T06:06:54.253Z,2.70
2022-11-20T06:09:22.435Z,2.70
2022-11-20T06:11:50.812Z,2.70
2022-11-20T06:14:18.983Z,2.80
2022-11-20T06:16:46.946Z,2.70
2022-11-20T06:19:16.046Z,3.30
2022-11-20T06:21:43.994Z,3.20
2022-11-20T06:24:12.609Z,2.90
2022-11-20T06:26:40.679Z,2.90
2022-11-20T06:29:08.648Z,3.20
2022-11-20T06:31:38.845Z,3.50
2022-11-20T06:34:07.798Z,2.80
2022-11-20T06:36:35.939Z,3.00
2022-11-20T06:39:04.111Z,3.00
2022-11-20T06:41:32.367Z,3.20
2022-11-20T06:44:00.459Z,3.40
2022-11-20T06:46:28.531Z,3.50
2022-11-20T06:48:56.600Z,2.80
2022-11-20T06:51:24.683Z,2.90
2022-11-20T06:53:52.849Z,3.30
2022-11-20T06:56:20.908Z,3.00
2022-11-20T06:58:48.849Z,2.80
2022-11-20T07:01:17.284Z,2.50
2022-11-20T07:03:48.034Z,3.00
2022-11-20T07:06:19.869Z,2.80
2022-11-20T07:08:48.248Z,2.50
2022-11-20T07:11:16.821Z,2.60
2022-11-20T07:13:44.807Z,3.10
2022-11-20T07:16:12.873Z,2.90
2022-11-20T07:18:43.655Z,3.30
2022-11-20T07:21:14.075Z,3.80
2022-11-20T07:23:42.078Z,3.30
2022-11-20T07:26:11.840Z,2.60
2022-11-20T07:28:40.065Z,2.60
2022-11-20T07:31:08.611Z,2.50
2022-11-20T07:33:36.873Z,2.40
2022-11-20T07:36:05.436Z,2.60
2022-11-20T07:38:33.505Z,2.90
2022-11-20T07:41:04.437Z,2.90
2022-11-20T07:43:34.796Z,2.70
2022-11-20T07:46:06.646Z,3.10
2022-11-20T07:48:34.561Z,2.90
2022-11-20T07:51:02.876Z,2.80
2022-11-20T07:53:30.942Z,2.90
2022-11-20T07:56:03.526Z,4.10
2022-11-20T07:58:34.121Z,6.40
2022-11-20T08:01:07.843Z,5.50
2022-11-20T08:03:38.802Z,3.80
2022-11-20T08:06:07.534Z,3.20
2022-11-20T08:08:38.866Z,2.30
2022-11-20T08:11:29.507Z,2.80
2022-11-20T08:14:12.759Z,2.80
2022-11-20T08:16:40.836Z,2.40
2022-11-20T08:19:08.910Z,2.80
2022-11-20T08:21:41.588Z,3.00
2022-11-20T08:24:11.000Z,2.40
2022-11-20T08:26:40.599Z,2.30
2022-11-20T08:29:08.678Z,3.10
2022-11-20T08:31:36.994Z,3.90
2022-11-20T08:34:25.000Z,3.60
2022-11-20T08:36:53.015Z,4.80
2022-11-20T08:39:21.296Z,5.40
2022-11-20T08:41:50.740Z,4.80
2022-11-20T08:44:18.820Z,3.60
2022-11-20T08:46:48.210Z,3.40
2022-11-20T08:49:16.805Z,3.20
2022-11-20T08:51:44.983Z,2.50
2022-11-20T08:54:13.093Z,2.70
2022-11-20T08:56:41.118Z,2.40
2022-11-20T08:59:43.772Z,2.80
2022-11-20T09:01:57.333Z,2.80
2022-11-20T09:04:25.501Z,2.80
2022-11-20T09:06:53.984Z,2.80
2022-11-20T09:09:22.328Z,2.70
2022-11-20T09:11:51.455Z,3.30
2022-11-20T09:16:47.913Z,3.20
2022-11-20T09:22:04.286Z,3.20
2022-11-20T09:24:32.679Z,3.80
2022-11-20T09:27:03.952Z,4.00
2022-11-20T09:29:31.920Z,3.70
2022-11-20T09:32:00.116Z,4.30
2022-11-20T09:34:28.177Z,3.20
2022-11-20T09:36:56.636Z,3.10
2022-11-20T09:39:24.843Z,3.00
2022-11-20T09:42:18.215Z,3.40
2022-11-20T09:44:55.175Z,3.10
2022-11-20T09:47:41.987Z,3.50
2022-11-20T09:50:38.087Z,3.10
2022-11-20T09:53:14.687Z,2.60
2022-11-20T09:55:42.975Z,2.90
2022-11-20T09:58:31.366Z,2.60
2022-11-20T10:01:21.032Z,2.50
2022-11-20T10:04:10.943Z,2.70
2022-11-20T10:06:59.435Z,2.90
2022-11-20T10:09:40.495Z,3.00
2022-11-20T10:12:14.187Z,2.80
2022-11-20T10:14:48.108Z,3.00
2022-11-20T10:17:31.560Z,2.80
2022-11-20T10:20:14.674Z,2.80
2022-11-20T10:23:04.038Z,3.10
2022-11-20T10:25:43.631Z,3.10
2022-11-20T10:28:23.956Z,3.10
2022-11-20T10:31:01.043Z,3.30
2022-11-20T10:33:56.970Z,3.40
2022-11-20T10:36:31.683Z,3.40
2022-11-20T10:39:16.343Z,3.30
2022-11-20T10:41:50.924Z,3.50
2022-11-20T10:44:41.361Z,3.70
2022-11-20T10:47:20.085Z,3.30
2022-11-20T10:49:54.091Z,3.40
2022-11-20T10:52:57.281Z,3.20
2022-11-20T10:55:43.710Z,3.20
2022-11-20T10:58:38.604Z,3.30
2022-11-20T11:01:16.166Z,4.00
2022-11-20T11:03:45.183Z,4.10
2022-11-20T11:08:56.460Z,3.50
2022-11-20T11:11:35.029Z,4.00
2022-11-20T11:14:11.650Z,4.30
2022-11-20T11:16:57.992Z,4.60
2022-11-20T11:19:26.279Z,3.90
2022-11-20T11:21:59.238Z,3.70
2022-11-20T11:24:45.205Z,3.50
2022-11-20T11:27:18.007Z,4.00
2022-11-20T11:29:47.556Z,3.90
2022-11-20T11:35:00.354Z,4.60
2022-11-20T11:37:36.048Z,4.00
2022-11-20T11:40:27.320Z,3.10
2022-11-20T11:43:03.878Z,2.70
2022-11-20T11:45:32.213Z,2.70
2022-11-20T11:48:04.492Z,2.60
2022-11-20T11:50:32.778Z,2.60
2022-11-20T11:53:04.137Z,2.80
2022-11-20T11:55:45.278Z,2.70
2022-11-20T11:58:35.215Z,2.60
2022-11-20T12:01:08.404Z,2.40
2022-11-20T12:03:39.610Z,2.20
2022-11-20T12:06:14.627Z,2.10
2022-11-20T12:08:49.634Z,2.10
2022-11-20T12:11:26.707Z,2.60
2022-11-20T12:14:05.314Z,3.10
2022-11-20T12:16:37.591Z,2.70
2022-11-20T12:19:13.088Z,2.40
2022-11-20T12:22:08.257Z,1.90
2022-11-20T12:25:13.760Z,2.30
2022-11-20T12:28:03.897Z,2.40
2022-11-20T12:30:39.437Z,2.50
2022-11-20T12:33:20.487Z,2.40
2022-11-20T12:36:01.153Z,2.00
2022-11-20T12:38:42.627Z,2.00
2022-11-20T12:41:52.057Z,2.10
2022-11-20T12:45:10.678Z,2.20
2022-11-20T12:47:57.773Z,2.20
2022-11-20T12:51:00.322Z,2.30
2022-11-20T12:53:43.469Z,2.10
2022-11-20T12:56:33.997Z,2.20
2022-11-20T12:59:14.082Z,2.20
2022-11-20T13:01:51.556Z,2.30
2022-11-20T13:04:38.087Z,2.10
2022-11-20T13:07:13.316Z,2.40
2022-11-20T13:09:50.947Z,1.90
2022-11-20T13:12:42.475Z,2.40
2022-11-20T13:15:31.990Z,2.00
2022-11-20T13:18:02.663Z,1.90
2022-11-20T13:20:33.215Z,2.30
2022-11-20T13:23:01.237Z,2.40
2022-11-20T13:25:40.456Z,2.10
2022-11-20T13:28:11.577Z,2.50
2022-11-20T13:30:51.786Z,2.10
2022-11-20T13:33:28.651Z,2.50
2022-11-20T13:36:02.826Z,2.50
2022-11-20T13:38:47.212Z,2.70
2022-11-20T13:41:36.388Z,2.20
2022-11-20T13:44:11.501Z,2.10
2022-11-20T13:46:48.157Z,2.60
2022-11-20T13:49:27.372Z,2.40
2022-11-20T13:52:20.867Z,2.40
2022-11-20T13:55:01.429Z,2.10
2022-11-20T13:58:10.867Z,2.10
2022-11-20T14:00:59.467Z,2.40
2022-11-20T14:04:04.494Z,3.00
2022-11-20T14:06:50.354Z,2.90
2022-11-20T14:09:33.400Z,3.20
2022-11-20T14:12:03.796Z,3.00
2022-11-20T14:14:34.742Z,3.10
2022-11-20T14:17:18.188Z,3.80
2022-11-20T14:19:48.754Z,3.80
2022-11-20T14:22:24.818Z,4.10
2022-11-20T14:25:28.472Z,3.40
2022-11-20T14:27:59.943Z,2.90
2022-11-20T14:30:30.779Z,2.70
2022-11-20T14:33:03.758Z,2.50
2022-11-20T14:35:36.941Z,2.60
2022-11-20T14:38:13.757Z,2.50
2022-11-20T14:40:43.525Z,2.70
2022-11-20T14:43:24.769Z,2.80
2022-11-20T14:46:09.471Z,3.70
2022-11-20T14:48:45.575Z,4.30
2022-11-20T14:51:46.077Z,3.60
2022-11-20T14:54:27.239Z,3.60
2022-11-20T14:57:31.413Z,3.90
2022-11-20T15:00:29.131Z,3.00
2022-11-20T15:02:57.812Z,3.20
2022-11-20T15:05:46.623Z,3.70
2022-11-20T15:08:20.245Z,3.50
2022-11-20T15:10:52.860Z,3.80
2022-11-20T15:13:38.642Z,3.50
2022-11-20T15:16:19.927Z,3.30
2022-11-20T15:18:49.015Z,2.90
2022-11-20T15:21:22.208Z,4.10
2022-11-20T15:23:50.887Z,3.70
2022-11-20T15:26:29.017Z,3.70
2022-11-20T15:28:57.178Z,3.30
2022-11-20T15:31:25.755Z,3.90
2022-11-20T15:33:54.028Z,3.50
2022-11-20T15:36:23.748Z,3.60
2022-11-20T15:38:52.023Z,3.70
2022-11-20T15:41:20.294Z,3.80
2022-11-20T15:43:48.678Z,3.90
2022-11-20T15:46:29.139Z,4.10
2022-11-20T15:48:58.103Z,4.60
2022-11-20T15:51:33.063Z,4.00
2022-11-20T15:54:21.660Z,2.80
2022-11-20T15:59:22.820Z,2.80
2022-11-20T16:01:56.353Z,3.20
2022-11-20T16:04:28.245Z,3.80
2022-11-20T16:06:57.266Z,4.40
2022-11-20T16:11:55.220Z,6.40
2022-11-20T16:14:41.828Z,5.80
2022-11-20T16:17:09.769Z,3.00
2022-11-20T16:19:38.990Z,2.60
2022-11-20T16:22:12.183Z,2.50
2022-11-20T16:24:40.361Z,2.90
2022-11-20T16:27:11.755Z,2.60
2022-11-20T16:29:39.880Z,2.70
2022-11-20T16:32:11.132Z,2.70
2022-11-20T16:34:40.115Z,2.60
2022-11-20T16:37:08.506Z,3.10
2022-11-20T16:39:36.479Z,3.40
2022-11-20T16:42:34.102Z,3.50
2022-11-20T16:45:02.067Z,3.60
2022-11-20T16:47:34.271Z,3.20
2022-11-20T16:50:05.178Z,3.00
2022-11-20T16:52:34.196Z,3.00
2022-11-20T16:55:02.521Z,3.00
2022-11-20T16:57:35.084Z,3.00
2022-11-20T17:00:04.219Z,3.30
2022-11-20T17:05:00.400Z,2.60
2022-11-20T17:07:28.897Z,2.60
2022-11-20T17:09:56.929Z,3.80
2022-11-20T17:12:25.124Z,3.80
2022-11-20T17:14:53.303Z,4.10
2022-11-20T17:17:21.273Z,4.30
2022-11-20T17:19:49.171Z,4.80
2022-11-20T17:22:17.216Z,4.50
2022-11-20T17:24:45.284Z,4.00
2022-11-20T17:27:13.268Z,3.80
2022-11-20T17:29:42.349Z,4.20
2022-11-20T17:32:10.525Z,4.90
2022-11-20T17:34:39.106Z,5.00
2022-11-20T17:37:07.181Z,4.70
2022-11-20T17:39:35.224Z,5.10
2022-11-20T17:42:23.388Z,4.50
2022-11-20T17:44:51.568Z,4.10
2022-11-20T17:47:19.538Z,4.40
2022-11-20T17:49:47.860Z,4.80
2022-11-20T17:52:15.815Z,4.90
2022-11-20T17:54:43.978Z,4.00
2022-11-20T17:57:32.345Z,4.00
2022-11-20T18:00:00.323Z,3.30
2022-11-20T18:02:29.480Z,3.10
2022-11-20T18:04:57.473Z,3.40
2022-11-20T18:07:25.490Z,3.50
2022-11-20T18:09:53.792Z,3.30
2022-11-20T18:12:22.802Z,3.20
2022-11-20T18:14:51.026Z,3.10
2022-11-20T18:17:19.170Z,3.10
2022-11-20T18:20:07.308Z,3.00
2022-11-20T18:22:38.840Z,2.60
2022-11-20T18:25:08.720Z,2.80
2022-11-20T18:27:37.081Z,2.90
2022-11-20T18:30:06.752Z,2.60
2022-11-20T18:32:36.050Z,2.70
2022-11-20T18:35:05.120Z,2.70
2022-11-20T18:37:33.204Z,3.20
2022-11-20T18:40:01.484Z,2.90
2022-11-20T18:42:49.741Z,4.40
2022-11-20T18:45:17.998Z,4.20
2022-11-20T18:47:46.181Z,3.90
2022-11-20T18:50:15.472Z,4.10
2022-11-20T18:55:14.287Z,4.30
2022-11-20T19:00:12.067Z,4.30
2022-11-20T19:02:42.549Z,3.90
2022-11-20T19:05:13.735Z,4.50
2022-11-20T19:07:42.736Z,4.40
2022-11-20T19:10:11.116Z,5.40
2022-11-20T19:12:39.395Z,5.10
2022-11-20T19:15:07.879Z,4.70
2022-11-20T19:17:35.993Z,5.00
2022-11-20T19:20:04.583Z,4.10
2022-11-20T19:22:32.705Z,3.90
2022-11-20T19:25:00.767Z,3.70
2022-11-20T19:27:28.985Z,3.90
2022-11-20T19:30:03.536Z,3.50
2022-11-20T19:32:33.486Z,3.50
2022-11-20T19:35:01.588Z,3.20
2022-11-20T19:37:33.587Z,3.40
2022-11-20T19:40:04.878Z,3.50
2022-11-20T19:42:33.258Z,4.20
2022-11-20T19:48:06.029Z,3.40
2022-11-20T19:50:21.164Z,3.40
2022-11-20T19:52:50.393Z,3.70
2022-11-20T19:55:21.316Z,3.30
2022-11-20T19:57:50.874Z,3.30
2022-11-20T20:00:26.574Z,2.90
2022-11-20T20:02:59.068Z,2.70
2022-11-20T20:05:27.277Z,2.80
2022-11-20T20:07:56.003Z,2.60
2022-11-20T20:10:24.119Z,2.50
2022-11-20T20:12:53.741Z,2.70
2022-11-20T20:15:21.811Z,2.90
2022-11-20T20:17:53.205Z,2.90
2022-11-20T20:20:21.685Z,2.70
2022-11-20T20:22:49.936Z,2.30
2022-11-20T20:25:18.093Z,3.20
2022-11-20T20:27:47.088Z,3.30
2022-11-20T20:30:15.419Z,2.60
2022-11-20T20:32:43.435Z,3.10
2022-11-20T20:35:11.504Z,2.90
2022-11-20T20:37:39.680Z,3.00
2022-11-20T20:40:14.759Z,2.40
2022-11-20T20:42:43.396Z,2.10
2022-11-20T20:45:11.679Z,2.20
2022-11-20T20:47:41.491Z,2.30
2022-11-20T20:50:13.099Z,2.00
2022-11-20T20:52:41.609Z,2.30
2022-11-20T20:55:09.997Z,2.60
2022-11-20T20:57:38.214Z,2.80
2022-11-20T21:00:08.849Z,2.90
2022-11-20T21:02:36.974Z,2.50
2022-11-20T21:05:05.719Z,2.50
2022-11-20T21:07:34.105Z,2.20
2022-11-20T21:10:02.215Z,2.90
2022-11-20T21:12:30.282Z,3.30
2022-11-20T21:14:58.619Z,3.10
2022-11-20T21:17:27.047Z,3.50
2022-11-20T21:19:55.227Z,3.70
2022-11-20T21:22:23.246Z,3.40
2022-11-20T21:24:51.351Z,3.40
2022-11-20T21:27:19.401Z,3.40
2022-11-20T21:29:47.608Z,3.20
2022-11-20T21:32:15.677Z,3.80
2022-11-20T21:34:43.746Z,3.60
2022-11-20T21:37:11.921Z,3.60
2022-11-20T21:39:50.842Z,3.30
2022-11-20T21:42:19.369Z,2.90
2022-11-20T21:44:47.915Z,2.90
2022-11-20T21:47:15.988Z,2.40
2022-11-20T21:49:44.157Z,2.60
2022-11-20T21:52:12.848Z,2.50
2022-11-20T21:54:40.817Z,3.10
2022-11-20T21:57:08.802Z,2.40
2022-11-20T21:59:37.679Z,2.40
2022-11-20T22:02:05.813Z,2.70
2022-11-20T22:04:33.946Z,1.80
2022-11-20T22:07:01.979Z,2.20
2022-11-20T22:09:30.172Z,2.30
2022-11-20T22:11:58.244Z,2.60
2022-11-20T22:14:26.483Z,2.60
2022-11-20T22:16:54.773Z,2.50
2022-11-20T22:19:23.590Z,2.90
2022-11-20T22:21:52.076Z,2.80
2022-11-20T22:24:22.501Z,2.30
2022-11-20T22:26:50.984Z,2.60
2022-11-20T22:29:21.955Z,2.10
2022-11-20T22:31:53.230Z,2.20
2022-11-20T22:34:21.923Z,2.00
2022-11-20T22:36:50.161Z,2.80
2022-11-20T22:39:18.727Z,2.80
2022-11-20T22:41:47.081Z,3.10
2022-11-20T22:44:16.374Z,2.90
2022-11-20T22:49:12.722Z,3.30
2022-11-20T22:51:41.778Z,3.50
2022-11-20T22:54:12.451Z,3.30
2022-11-20T22:56:41.298Z,2.90
2022-11-20T22:59:09.463Z,2.80
2022-11-20T23:06:10.498Z,2.30
2022-11-20T23:08:39.603Z,2.50
2022-11-20T23:11:10.252Z,2.60
2022-11-20T23:13:39.250Z,2.60
2022-11-20T23:16:10.186Z,2.70
2022-11-20T23:18:39.145Z,2.50
2022-11-20T23:21:10.702Z,2.40
2022-11-20T23:23:38.976Z,2.30
2022-11-20T23:26:10.331Z,2.80
2022-11-20T23:28:39.942Z,2.90
2022-11-20T23:31:08.839Z,2.50
2022-11-20T23:33:41.770Z,2.80
2022-11-20T23:36:10.945Z,2.50
2022-11-20T23:38:39.864Z,2.30
2022-11-20T23:41:08.596Z,2.50
2022-11-20T23:43:37.086Z,2.40
2022-11-20T23:46:06.164Z,2.40
2022-11-20T23:48:36.106Z,2.40
2022-11-20T23:51:05.878Z,2.80
2022-11-20T23:53:34.551Z,2.60
2022-11-20T23:56:05.320Z,2.80
2022-11-20T23:58:36.629Z,2.70
